Time;durP1;ratioP1;P1;durP2;ratioP2;P2;SDS_P1;SDS_P2;PMS_P1;PMS_P2;Temp;Humidity;BMP_temperature;BMP_pressure;BME280_temperature;BME280_humidity;BME280_pressure;Samples;Min_cycle;Max_cycle;Signal;HPM_P1;HPM_P2
2024/03/18 00:00:17;;;;;;;17.08;9.48;;;11.00;73.40;;;;;;9178477;19;20376;-61
2024/03/18 00:03:23;;;;;;;17.08;9.40;;;11.00;73.50;;;;;;9178589;19;20078;-62
2024/03/18 00:06:27;;;;;;;18.98;8.75;;;11.00;73.50;;;;;;9178321;19;20090;-63
2024/03/18 00:09:34;;;;;;;14.77;8.35;;;11.00;73.60;;;;;;9178634;19;20033;-62
2024/03/18 00:12:42;;;;;;;15.68;9.25;;;11.00;73.70;;;;;;9178239;19;20017;-63
2024/03/18 00:15:49;;;;;;;16.25;9.13;;;11.00;73.70;;;;;;9175770;19;20021;-63
2024/03/18 00:18:54;;;;;;;19.50;10.45;;;11.00;73.70;;;;;;9177389;19;20432;-62
2024/03/18 00:22:00;;;;;;;14.60;9.43;;;11.00;73.80;;;;;;9178134;19;20019;-63
2024/03/18 00:25:05;;;;;;;15.45;9.57;;;11.00;73.80;;;;;;9177987;19;20010;-64
2024/03/18 00:28:14;;;;;;;20.80;10.20;;;10.90;73.90;;;;;;9176592;19;20018;-65
2024/03/18 00:31:18;;;;;;;16.30;9.80;;;10.90;73.90;;;;;;9178042;19;20098;-64
2024/03/18 00:34:25;;;;;;;16.35;9.50;;;10.90;74.00;;;;;;9177696;19;20045;-66
2024/03/18 00:37:29;;;;;;;18.30;9.90;;;10.90;74.10;;;;;;9175678;19;20078;-63
2024/03/18 00:40:35;;;;;;;20.48;9.27;;;10.90;74.10;;;;;;9176521;19;20361;-63
2024/03/18 00:43:40;;;;;;;19.35;9.93;;;10.90;74.10;;;;;;9177087;19;20575;-62
2024/03/18 00:46:46;;;;;;;14.63;9.45;;;10.90;74.20;;;;;;9176167;19;20022;-63
2024/03/18 00:49:51;;;;;;;14.18;8.77;;;10.90;74.20;;;;;;9172830;19;20025;-62
2024/03/18 00:52:57;;;;;;;17.42;10.18;;;10.90;74.20;;;;;;9176247;19;20372;-64
2024/03/18 00:56:01;;;;;;;18.17;9.18;;;10.90;74.40;;;;;;9173857;19;20369;-63
2024/03/18 00:59:10;;;;;;;18.25;9.13;;;10.90;74.40;;;;;;9176267;19;20019;-62
2024/03/18 01:02:15;;;;;;;14.38;9.05;;;10.90;74.40;;;;;;9175633;19;20035;-62
2024/03/18 01:05:21;;;;;;;19.55;9.68;;;10.90;74.40;;;;;;9176431;19;20019;-62
2024/03/18 01:08:26;;;;;;;20.17;9.38;;;10.90;74.40;;;;;;9174028;19;20014;-65
2024/03/18 01:11:32;;;;;;;20.52;9.77;;;10.90;75.20;;;;;;9176106;19;20657;-66
2024/03/18 01:14:39;;;;;;;18.35;9.82;;;10.90;74.60;;;;;;9176378;19;20014;-62
2024/03/18 01:17:45;;;;;;;19.17;9.27;;;10.90;74.70;;;;;;9175480;19;20484;-62
2024/03/18 01:20:50;;;;;;;16.75;8.90;;;10.90;74.80;;;;;;9174327;19;20472;-65
2024/03/18 01:23:57;;;;;;;16.90;9.73;;;10.90;74.90;;;;;;9175656;19;20488;-64
2024/03/18 01:27:01;;;;;;;17.38;9.55;;;10.90;74.90;;;;;;9174749;19;20329;-62
2024/03/18 01:30:15;;;;;;;18.25;9.57;;;10.90;75.00;;;;;;9174410;19;20483;-62
2024/03/18 01:33:20;;;;;;;16.50;9.80;;;10.90;75.10;;;;;;9172630;19;20681;-63
2024/03/18 01:36:26;;;;;;;16.90;9.57;;;10.90;75.10;;;;;;9172576;19;20017;-61
2024/03/18 01:39:31;;;;;;;22.48;9.18;;;10.80;75.10;;;;;;9172819;19;20014;-63
2024/03/18 01:42:37;;;;;;;15.40;8.82;;;10.90;75.30;;;;;;9174337;19;20010;-64
2024/03/18 01:45:44;;;;;;;16.98;9.55;;;10.80;75.30;;;;;;9174786;19;20024;-63
2024/03/18 01:48:51;;;;;;;19.65;9.70;;;10.80;75.30;;;;;;9174252;19;20448;-63
2024/03/18 01:51:55;;;;;;;18.75;9.38;;;10.80;75.30;;;;;;9166326;19;20438;-64
2024/03/18 01:55:02;;;;;;;16.52;9.68;;;10.80;75.40;;;;;;9173596;19;20495;-65
2024/03/18 01:58:06;;;;;;;14.73;9.63;;;10.80;75.50;;;;;;9173597;19;20027;-65
2024/03/18 02:01:16;;;;;;;15.50;8.80;;;10.80;75.50;;;;;;9173008;19;20029;-63
2024/03/18 02:04:20;;;;;;;19.88;10.18;;;10.80;75.70;;;;;;9173919;19;20029;-62
2024/03/18 02:07:30;;;;;;;14.43;8.90;;;10.80;75.70;;;;;;9173314;19;20022;-62
2024/03/18 02:10:34;;;;;;;18.55;9.57;;;10.80;75.80;;;;;;9173827;19;20014;-64
2024/03/18 02:13:41;;;;;;;18.33;9.77;;;10.80;75.80;;;;;;9174161;19;20024;-62
2024/03/18 02:16:48;;;;;;;19.63;10.20;;;10.80;75.80;;;;;;9172088;19;20602;-62
2024/03/18 02:19:54;;;;;;;18.20;10.30;;;10.80;76.00;;;;;;9170998;19;20103;-65
2024/03/18 02:23:01;;;;;;;16.02;9.77;;;10.80;76.00;;;;;;9173273;19;20011;-62
2024/03/18 02:26:16;;;;;;;17.65;9.68;;;10.80;76.10;;;;;;9173432;19;20693;-63
2024/03/18 02:29:20;;;;;;;14.60;9.27;;;10.80;76.10;;;;;;9172951;19;20010;-64
2024/03/18 02:32:27;;;;;;;21.42;10.50;;;10.80;76.10;;;;;;9171923;19;20053;-62
2024/03/18 02:35:32;;;;;;;22.58;9.77;;;10.70;76.10;;;;;;9172819;19;20031;-62
2024/03/18 02:38:41;;;;;;;16.10;10.13;;;10.80;76.20;;;;;;9170353;19;20025;-62
2024/03/18 02:41:45;;;;;;;15.65;9.95;;;10.80;76.30;;;;;;9171255;19;20010;-64
2024/03/18 02:44:51;;;;;;;14.48;9.18;;;10.80;76.40;;;;;;9172484;19;20082;-62
2024/03/18 02:47:56;;;;;;;17.85;10.00;;;10.80;76.40;;;;;;9170564;19;20019;-65
2024/03/18 02:51:05;;;;;;;17.67;10.55;;;10.80;76.50;;;;;;9168005;19;20534;-62
2024/03/18 02:54:12;;;;;;;18.73;10.13;;;10.80;76.60;;;;;;9172838;19;20003;-63
2024/03/18 02:57:19;;;;;;;15.85;10.20;;;10.80;76.60;;;;;;9169932;19;20022;-66
2024/03/18 03:00:24;;;;;;;17.33;9.57;;;10.70;77.20;;;;;;9170918;19;20020;-63
2024/03/18 03:03:30;;;;;;;20.90;10.70;;;10.70;76.70;;;;;;9173058;19;20041;-63
2024/03/18 03:06:34;;;;;;;19.65;11.02;;;10.70;76.70;;;;;;9170838;19;20784;-63
2024/03/18 03:09:43;;;;;;;16.90;10.05;;;10.70;76.70;;;;;;9171165;19;20010;-63
2024/03/18 03:12:48;;;;;;;14.27;9.35;;;10.80;77.00;;;;;;9172177;19;20022;-64
2024/03/18 03:15:54;;;;;;;18.45;10.27;;;10.70;76.90;;;;;;9170358;19;20019;-63
2024/03/18 03:18:59;;;;;;;18.33;10.68;;;10.70;76.90;;;;;;9171579;19;20023;-62
2024/03/18 03:22:07;;;;;;;15.95;10.23;;;10.70;77.00;;;;;;9170563;19;20022;-62
2024/03/18 03:25:13;;;;;;;17.42;9.85;;;10.70;77.00;;;;;;9170461;19;20018;-63
2024/03/18 03:28:20;;;;;;;17.77;10.40;;;10.70;77.10;;;;;;9171499;19;20015;-61
2024/03/18 03:31:25;;;;;;;19.63;10.07;;;10.70;77.10;;;;;;9171245;19;20015;-63
2024/03/18 03:34:31;;;;;;;21.67;11.70;;;10.70;77.20;;;;;;9180251;19;20467;-62
2024/03/18 03:37:36;;;;;;;18.67;10.77;;;10.70;77.20;;;;;;9176970;19;20011;-62
2024/03/18 03:40:52;;;;;;;16.70;11.15;;;10.70;77.30;;;;;;9179216;19;20011;-61
2024/03/18 03:43:57;;;;;;;16.45;10.98;;;10.70;77.50;;;;;;9177935;19;20018;-61
2024/03/18 03:47:03;;;;;;;18.92;11.43;;;10.70;77.30;;;;;;9179553;19;20022;-63
2024/03/18 03:50:09;;;;;;;15.95;10.23;;;10.70;77.40;;;;;;9174810;19;20033;-63
2024/03/18 03:53:15;;;;;;;21.85;11.73;;;10.70;77.50;;;;;;9179063;19;20011;-61
2024/03/18 03:56:22;;;;;;;23.67;11.20;;;10.70;77.50;;;;;;9177523;19;20033;-63
2024/03/18 03:59:29;;;;;;;17.73;11.20;;;10.70;77.60;;;;;;9179065;19;20371;-61
2024/03/18 04:02:34;;;;;;;21.80;12.27;;;10.70;77.60;;;;;;9178010;19;20023;-64
2024/03/18 04:05:40;;;;;;;19.08;11.70;;;10.70;77.60;;;;;;9178910;19;20029;-63
2024/03/18 04:08:44;;;;;;;22.05;10.95;;;10.70;77.70;;;;;;9179131;19;20486;-62
2024/03/18 04:11:53;;;;;;;26.80;12.10;;;10.70;77.70;;;;;;9178410;19;20019;-62
2024/03/18 04:14:58;;;;;;;21.27;11.95;;;10.70;77.80;;;;;;9178285;19;20041;-62
2024/03/18 04:18:04;;;;;;;25.00;13.32;;;10.80;77.80;;;;;;9175382;19;20500;-64
2024/03/18 04:21:09;;;;;;;18.90;11.23;;;10.80;77.90;;;;;;9176951;19;20092;-64
2024/03/18 04:24:15;;;;;;;18.80;12.55;;;10.80;78.00;;;;;;9177115;19;20022;-65
2024/03/18 04:27:23;;;;;;;26.70;13.25;;;10.80;78.00;;;;;;9178052;19;20060;-64
2024/03/18 04:30:29;;;;;;;25.13;12.77;;;10.80;78.00;;;;;;9177753;19;20649;-62
2024/03/18 04:33:34;;;;;;;26.60;13.45;;;10.80;78.00;;;;;;9177259;19;20025;-64
2024/03/18 04:36:40;;;;;;;24.10;14.10;;;10.80;78.00;;;;;;9176691;19;20365;-65
2024/03/18 04:39:45;;;;;;;22.10;14.48;;;10.80;78.10;;;;;;9175008;19;20041;-62
2024/03/18 04:42:55;;;;;;;24.95;14.27;;;10.80;78.20;;;;;;9175398;19;20026;-62
2024/03/18 04:45:59;;;;;;;24.40;13.77;;;10.80;78.30;;;;;;9177223;19;20014;-64
2024/03/18 04:49:06;;;;;;;21.58;13.57;;;10.80;78.20;;;;;;9177487;19;20099;-61
2024/03/18 04:52:10;;;;;;;26.40;14.27;;;10.80;78.30;;;;;;9172818;19;20397;-65
2024/03/18 04:55:17;;;;;;;26.40;13.75;;;10.80;78.40;;;;;;9176231;19;20018;-63
2024/03/18 04:58:24;;;;;;;28.23;14.65;;;10.90;78.40;;;;;;9173815;19;21051;-63
2024/03/18 05:01:30;;;;;;;29.52;15.60;;;10.90;78.50;;;;;;9176408;19;20018;-62
2024/03/18 05:04:36;;;;;;;26.85;14.90;;;10.90;78.50;;;;;;9175512;19;20048;-63
2024/03/18 05:07:42;;;;;;;32.75;16.20;;;10.80;79.10;;;;;;9175986;19;21346;-65
2024/03/18 05:10:47;;;;;;;28.58;14.63;;;10.90;78.60;;;;;;9175964;19;20022;-64
2024/03/18 05:13:56;;;;;;;37.10;16.35;;;10.90;78.60;;;;;;9175063;19;20018;-67
2024/03/18 05:17:00;;;;;;;27.73;15.20;;;10.90;78.70;;;;;;9174940;19;20014;-63
2024/03/18 05:20:11;;;;;;;36.28;16.10;;;10.90;78.70;;;;;;9175100;19;20642;-63
2024/03/18 05:23:15;;;;;;;36.25;17.65;;;10.90;78.70;;;;;;9175796;19;20015;-63
2024/03/18 05:26:22;;;;;;;34.10;17.33;;;10.90;78.70;;;;;;9174501;19;20026;-63
2024/03/18 05:29:29;;;;;;;38.05;18.02;;;10.90;78.80;;;;;;9175398;19;20676;-63
2024/03/18 05:32:36;;;;;;;38.17;17.73;;;11.00;78.90;;;;;;9173871;19;20019;-65
2024/03/18 05:35:40;;;;;;;47.50;18.63;;;11.00;78.90;;;;;;9172906;19;20015;-65
2024/03/18 05:38:46;;;;;;;46.75;19.25;;;11.00;78.90;;;;;;9171293;19;20022;-63
2024/03/18 05:41:51;;;;;;;41.83;19.67;;;11.00;79.00;;;;;;9173569;19;20010;-64
2024/03/18 05:45:00;;;;;;;37.35;18.30;;;11.00;79.00;;;;;;9173426;19;20356;-62
2024/03/18 05:48:05;;;;;;;37.85;18.50;;;11.00;79.10;;;;;;9173856;19;20070;-64
2024/03/18 05:51:12;;;;;;;40.15;18.75;;;11.00;79.00;;;;;;9169738;19;20110;-62
2024/03/18 05:54:17;;;;;;;45.53;19.50;;;11.00;79.10;;;;;;9172631;19;20082;-64
2024/03/18 05:57:23;;;;;;;47.25;20.15;;;11.00;79.10;;;;;;9172729;19;20015;-62
2024/03/18 06:00:30;;;;;;;39.90;20.60;;;11.00;79.20;;;;;;9172008;19;20038;-62
2024/03/18 06:03:36;;;;;;;53.90;21.13;;;11.00;79.20;;;;;;9172053;19;20018;-64
2024/03/18 06:06:41;;;;;;;48.78;22.65;;;11.00;79.20;;;;;;9172588;19;20059;-63
2024/03/18 06:09:47;;;;;;;45.72;21.20;;;11.00;79.20;;;;;;9173368;19;20041;-61
2024/03/18 06:12:52;;;;;;;49.47;21.90;;;11.00;79.30;;;;;;9172667;19;20010;-62
2024/03/18 06:16:01;;;;;;;54.38;21.60;;;11.00;79.30;;;;;;9172151;19;20015;-64
2024/03/18 06:19:06;;;;;;;56.00;24.17;;;11.10;79.50;;;;;;9168008;19;20024;-64
2024/03/18 06:22:20;;;;;;;55.58;21.70;;;11.10;79.50;;;;;;9172380;19;20130;-64
2024/03/18 06:28:45;;;;;;;50.05;22.33;;;11.10;79.60;;;;;;9170398;19;20480;-64
2024/03/18 06:31:52;;;;;;;63.17;24.85;;;11.10;79.60;;;;;;9171628;19;20022;-64
2024/03/18 06:34:58;;;;;;;55.97;24.88;;;11.10;79.60;;;;;;9172494;19;20022;-62
2024/03/18 06:38:02;;;;;;;55.08;23.63;;;11.10;79.60;;;;;;9170279;19;20015;-65
2024/03/18 06:41:09;;;;;;;58.63;24.88;;;11.10;79.70;;;;;;9172041;19;20019;-64
2024/03/18 06:44:13;;;;;;;60.75;25.33;;;11.10;79.80;;;;;;9171960;19;20025;-63
2024/03/18 06:47:25;;;;;;;67.75;26.55;;;11.20;79.80;;;;;;9172942;19;20258;-63
2024/03/18 06:50:30;;;;;;;74.28;26.98;;;11.10;79.90;;;;;;9168201;19;20482;-64
2024/03/18 06:53:37;;;;;;;66.15;26.48;;;11.20;79.90;;;;;;9172352;19;20010;-66
2024/03/18 06:56:41;;;;;;;71.43;29.45;;;11.20;79.90;;;;;;9171891;19;20018;-64
2024/03/18 06:59:47;;;;;;;74.43;29.20;;;11.20;80.00;;;;;;9169349;19;20019;-66
2024/03/18 07:02:54;;;;;;;79.03;27.83;;;11.20;80.00;;;;;;9171845;19;20014;-64
2024/03/18 07:06:01;;;;;;;70.90;27.27;;;11.30;80.20;;;;;;9172044;19;20026;-66
2024/03/18 07:09:05;;;;;;;73.40;27.92;;;11.20;80.10;;;;;;9180365;19;20651;-63
2024/03/18 07:12:12;;;;;;;81.32;29.20;;;11.30;80.20;;;;;;9178225;19;20015;-68
2024/03/18 07:15:17;;;;;;;75.15;30.08;;;11.30;80.20;;;;;;9181259;19;20019;-64
2024/03/18 07:18:27;;;;;;;79.57;29.95;;;11.30;80.30;;;;;;9177735;19;20017;-63
2024/03/18 07:21:31;;;;;;;72.35;28.45;;;11.30;80.40;;;;;;9176111;19;20022;-65
2024/03/18 07:24:38;;;;;;;80.20;30.52;;;11.30;80.30;;;;;;9181155;19;20010;-63
2024/03/18 07:27:42;;;;;;;82.90;29.98;;;11.30;80.40;;;;;;9179594;19;20460;-63
2024/03/18 07:30:49;;;;;;;73.65;28.75;;;11.30;80.40;;;;;;9181304;19;20029;-63
2024/03/18 07:33:56;;;;;;;75.15;30.52;;;11.40;80.50;;;;;;9179525;19;20494;-64
2024/03/18 07:37:02;;;;;;;79.95;29.23;;;11.40;81.20;;;;;;9179431;19;20364;-62
2024/03/18 07:40:11;;;;;;;86.85;31.02;;;11.40;80.60;;;;;;9176669;19;20031;-64
2024/03/18 07:43:17;;;;;;;81.32;30.88;;;11.40;80.70;;;;;;9178397;19;20483;-64
2024/03/18 07:46:22;;;;;;;78.07;30.17;;;11.50;80.70;;;;;;9178538;19;20358;-64
2024/03/18 07:49:31;;;;;;;84.40;30.98;;;11.50;80.80;;;;;;9175068;19;20022;-64
2024/03/18 07:52:36;;;;;;;80.68;29.85;;;11.50;80.80;;;;;;9179561;19;20017;-63
2024/03/18 07:55:42;;;;;;;87.55;31.23;;;11.50;80.80;;;;;;9178732;19;20029;-67
2024/03/18 07:58:46;;;;;;;82.63;31.38;;;11.50;80.80;;;;;;9175707;19;20022;-64
2024/03/18 08:01:53;;;;;;;97.82;30.50;;;11.60;80.90;;;;;;9178729;19;20022;-64
2024/03/18 08:05:00;;;;;;;82.57;31.38;;;11.60;81.60;;;;;;9177389;19;20018;-63
2024/03/18 08:08:07;;;;;;;78.68;29.75;;;11.60;81.10;;;;;;9178850;19;20014;-62
2024/03/18 08:11:11;;;;;;;82.45;31.73;;;11.60;81.10;;;;;;9178738;19;20006;-64
2024/03/18 08:14:18;;;;;;;80.65;30.98;;;11.70;81.20;;;;;;9178043;19;20366;-64
2024/03/18 08:17:23;;;;;;;83.85;32.17;;;11.70;81.20;;;;;;9177870;19;20034;-66
2024/03/18 08:20:32;;;;;;;76.18;31.45;;;11.80;81.30;;;;;;9178146;19;20026;-64
2024/03/18 08:23:36;;;;;;;74.03;30.52;;;11.80;81.40;;;;;;9177059;19;20086;-64
2024/03/18 08:26:42;;;;;;;79.75;30.45;;;11.80;81.40;;;;;;9177498;19;20011;-64
2024/03/18 08:29:47;;;;;;;64.68;28.88;;;11.80;81.40;;;;;;9178312;19;20021;-66
2024/03/18 08:32:53;;;;;;;64.65;28.90;;;11.90;81.50;;;;;;9177606;19;20030;-65
2024/03/18 08:36:00;;;;;;;59.92;27.98;;;11.90;81.60;;;;;;9176780;19;20013;-64
2024/03/18 08:39:07;;;;;;;68.85;27.00;;;12.00;81.70;;;;;;9174802;19;20025;-65
2024/03/18 08:42:11;;;;;;;60.85;27.35;;;12.00;81.60;;;;;;9177513;19;20046;-65
2024/03/18 08:45:18;;;;;;;61.78;27.70;;;12.00;81.70;;;;;;9176320;19;20029;-63
2024/03/18 08:48:22;;;;;;;47.13;23.55;;;12.10;81.80;;;;;;9175814;19;20011;-63
2024/03/18 08:51:32;;;;;;;43.40;23.75;;;12.20;81.80;;;;;;9172724;19;20022;-63
2024/03/18 08:54:36;;;;;;;44.03;22.15;;;12.20;81.90;;;;;;9176330;19;20082;-65
2024/03/18 08:57:43;;;;;;;49.30;22.67;;;12.30;81.90;;;;;;9175920;19;20153;-64
2024/03/18 09:00:50;;;;;;;46.45;22.63;;;12.30;81.90;;;;;;9175378;19;20052;-64
2024/03/18 09:03:56;;;;;;;45.85;22.17;;;12.30;82.00;;;;;;9176802;19;20019;-64
2024/03/18 09:07:05;;;;;;;41.30;21.15;;;12.40;82.00;;;;;;9175875;19;20029;-64
2024/03/18 09:10:14;;;;;;;37.90;20.35;;;12.40;82.10;;;;;;9175596;19;20014;-65
2024/03/18 09:13:20;;;;;;;41.40;20.75;;;12.50;82.20;;;;;;9176056;19;20353;-63
2024/03/18 09:16:24;;;;;;;40.05;20.20;;;12.50;82.10;;;;;;9175200;19;20022;-63
2024/03/18 09:19:34;;;;;;;39.92;19.58;;;12.60;82.20;;;;;;9172432;19;20022;-63
2024/03/18 09:22:42;;;;;;;35.38;19.50;;;12.60;82.20;;;;;;9172428;19;20014;-63
2024/03/18 09:25:48;;;;;;;37.08;19.38;;;12.70;82.30;;;;;;9169964;19;20373;-63
2024/03/18 09:28:53;;;;;;;37.28;19.08;;;12.70;82.30;;;;;;9172629;19;20472;-64
2024/03/18 09:31:59;;;;;;;37.20;18.95;;;12.70;82.20;;;;;;9174866;19;20042;-66
2024/03/18 09:35:04;;;;;;;31.58;17.35;;;12.80;82.30;;;;;;9174628;19;20018;-64
2024/03/18 09:38:13;;;;;;;34.30;17.75;;;12.80;82.20;;;;;;9173182;19;20022;-63
2024/03/18 09:41:21;;;;;;;35.83;18.80;;;12.90;82.30;;;;;;9174085;19;20010;-65
2024/03/18 09:44:27;;;;;;;40.10;18.13;;;12.90;82.30;;;;;;9175044;19;20018;-64
2024/03/18 09:47:32;;;;;;;30.23;16.75;;;12.90;82.10;;;;;;9174985;19;20027;-64
2024/03/18 09:50:40;;;;;;;32.58;17.10;;;13.00;82.20;;;;;;9169166;19;20014;-64
2024/03/18 09:53:48;;;;;;;37.15;17.55;;;13.00;82.20;;;;;;9173768;19;20010;-64
2024/03/18 09:56:58;;;;;;;36.75;16.77;;;13.00;82.30;;;;;;9173684;19;20029;-64
2024/03/18 10:00:03;;;;;;;39.00;16.08;;;13.10;82.40;;;;;;9171873;19;20018;-66
2024/03/18 10:03:19;;;;;;;30.88;15.55;;;13.10;82.30;;;;;;9173944;19;20022;-63
2024/03/18 10:06:25;;;;;;;26.95;16.40;;;13.10;82.30;;;;;;9172639;19;20018;-65
2024/03/18 10:09:35;;;;;;;31.58;16.48;;;13.20;82.30;;;;;;9174333;19;20021;-63
2024/03/18 10:12:42;;;;;;;23.48;15.15;;;13.20;82.40;;;;;;9173847;19;20014;-63
2024/03/18 10:15:48;;;;;;;28.52;15.93;;;13.30;82.40;;;;;;9172799;19;20483;-66
2024/03/18 10:18:52;;;;;;;29.33;15.80;;;13.30;82.40;;;;;;9168671;19;20034;-66
2024/03/18 10:21:59;;;;;;;38.58;15.45;;;13.30;82.30;;;;;;9171450;19;20017;-64
2024/03/18 10:25:11;;;;;;;29.42;14.82;;;13.40;82.30;;;;;;9172907;19;20014;-63
2024/03/18 10:28:18;;;;;;;26.25;14.43;;;13.40;82.40;;;;;;9171213;19;20018;-63
2024/03/18 10:31:23;;;;;;;28.27;14.88;;;13.50;82.30;;;;;;9169987;19;20591;-64
2024/03/18 10:34:36;;;;;;;32.13;14.80;;;13.50;82.30;;;;;;9169582;19;20018;-64
2024/03/18 10:37:40;;;;;;;27.70;15.00;;;13.60;82.40;;;;;;9167565;19;20021;-64
2024/03/18 10:40:52;;;;;;;24.55;14.40;;;13.60;82.40;;;;;;9170006;19;20010;-65
2024/03/18 10:43:59;;;;;;;25.20;14.65;;;13.60;82.40;;;;;;9180790;19;20019;-66
2024/03/18 10:47:06;;;;;;;31.25;15.63;;;13.70;82.50;;;;;;9178647;19;20028;-64
2024/03/18 10:50:16;;;;;;;26.88;13.93;;;13.70;82.50;;;;;;9174616;19;20018;-63
2024/03/18 10:53:25;;;;;;;23.48;13.93;;;13.80;82.50;;;;;;9179533;19;20014;-64
2024/03/18 10:56:32;;;;;;;28.83;14.73;;;13.80;82.40;;;;;;9178084;19;20010;-64
2024/03/18 10:59:39;;;;;;;32.05;14.75;;;13.90;82.50;;;;;;9176128;19;20045;-66
2024/03/18 11:02:43;;;;;;;26.85;14.43;;;13.90;82.40;;;;;;9179012;19;20015;-66
2024/03/18 11:05:51;;;;;;;28.48;14.63;;;14.00;82.20;;;;;;9179060;19;20019;-63
2024/03/18 11:09:02;;;;;;;29.75;15.35;;;14.00;82.20;;;;;;9179411;19;20039;-67
2024/03/18 11:12:34;;;;;;;27.67;14.35;;;14.10;82.20;;;;;;9180177;19;20350;-64
2024/03/18 11:15:41;;;;;;;26.83;15.90;;;14.10;82.20;;;;;;9180447;19;20611;-65
2024/03/18 11:18:48;;;;;;;33.58;15.73;;;14.10;82.10;;;;;;9179431;19;20717;-66
2024/03/18 11:22:01;;;;;;;33.30;15.10;;;14.10;82.00;;;;;;9180273;19;20132;-64
2024/03/18 11:25:17;;;;;;;23.33;14.23;;;14.10;82.00;;;;;;9178306;19;20021;-64
2024/03/18 11:28:34;;;;;;;;;;;14.20;82.10;;;;;;9179854;19;20018;-63
2024/03/18 11:31:41;;;;;;;35.78;15.48;;;14.20;82.00;;;;;;9179792;19;19941;-66
2024/03/18 11:34:45;;;;;;;28.23;15.57;;;14.20;82.00;;;;;;9180036;19;20022;-63
2024/03/18 11:37:52;;;;;;;30.95;15.63;;;14.20;82.10;;;;;;9177858;19;20014;-65
2024/03/18 11:40:58;;;;;;;30.48;16.08;;;14.30;82.20;;;;;;9173406;19;20019;-64
2024/03/18 11:44:07;;;;;;;28.75;14.25;;;14.30;82.20;;;;;;9179167;19;20014;-63
2024/03/18 11:47:13;;;;;;;30.05;15.32;;;14.40;82.20;;;;;;9179200;19;20030;-66
2024/03/18 11:50:21;;;;;;;27.17;15.35;;;14.50;82.20;;;;;;9168262;19;20029;-66
2024/03/18 11:53:27;;;;;;;25.95;15.32;;;14.50;82.20;;;;;;9175551;19;20400;-63
2024/03/18 11:56:37;;;;;;;27.25;14.65;;;14.60;82.30;;;;;;9177200;19;20015;-65
2024/03/18 11:59:44;;;;;;;28.00;14.43;;;14.70;82.20;;;;;;9171448;19;20592;-66
2024/03/18 12:02:50;;;;;;;31.98;15.05;;;14.80;82.20;;;;;;9176097;19;20341;-66
2024/03/18 12:05:54;;;;;;;28.52;15.43;;;14.90;82.10;;;;;;9175788;19;20494;-69
2024/03/18 12:09:01;;;;;;;27.50;14.05;;;15.00;82.00;;;;;;9176837;19;20366;-66
2024/03/18 12:12:06;;;;;;;27.42;13.13;;;15.10;81.90;;;;;;9176106;19;20507;-68
2024/03/18 12:15:15;;;;;;;24.55;13.52;;;15.20;81.80;;;;;;9172209;19;20015;-65
2024/03/18 12:18:20;;;;;;;22.98;12.13;;;15.30;81.70;;;;;;9177184;19;20082;-68
2024/03/18 12:21:26;;;;;;;27.10;13.27;;;15.50;81.60;;;;;;9176937;19;20022;-67
2024/03/18 12:31:12;;;;;;;27.23;13.00;;;15.60;81.10;;;;;;9175620;19;20036;-66
2024/03/18 12:34:19;;;;;;;31.85;15.80;;;15.70;80.80;;;;;;9176798;19;20018;-67
2024/03/18 12:37:23;;;;;;;28.70;12.43;;;15.80;80.80;;;;;;9175674;19;20109;-68
2024/03/18 12:40:30;;;;;;;23.90;12.40;;;15.80;80.60;;;;;;9174812;19;20018;-65
2024/03/18 12:43:35;;;;;;;19.58;12.15;;;15.80;80.60;;;;;;9177440;19;20037;-69
2024/03/18 12:46:44;;;;;;;25.08;12.02;;;15.80;80.40;;;;;;9177514;19;20021;-66
2024/03/18 12:49:50;;;;;;;30.83;13.02;;;15.90;80.30;;;;;;9173432;19;20014;-66
2024/03/18 12:52:56;;;;;;;25.40;12.38;;;15.90;80.20;;;;;;9176212;19;20011;-66
2024/03/18 12:56:01;;;;;;;26.80;12.45;;;15.90;80.10;;;;;;9177014;19;20015;-66
2024/03/18 12:59:09;;;;;;;29.00;13.20;;;15.90;80.00;;;;;;9176042;19;20018;-66
2024/03/18 13:02:16;;;;;;;26.27;12.82;;;15.90;79.90;;;;;;9176639;19;20011;-66
2024/03/18 13:05:23;;;;;;;29.23;14.90;;;15.90;79.90;;;;;;9171269;19;20011;-67
2024/03/18 13:08:28;;;;;;;27.23;12.80;;;15.90;79.80;;;;;;9176414;19;20018;-69
2024/03/18 13:11:35;;;;;;;24.98;12.38;;;16.00;79.80;;;;;;9176648;19;20018;-66
2024/03/18 13:14:40;;;;;;;29.52;12.65;;;16.00;79.80;;;;;;9176097;19;20010;-66
2024/03/18 13:17:49;;;;;;;25.85;11.95;;;16.00;79.70;;;;;;9176032;19;20014;-66
2024/03/18 13:20:54;;;;;;;25.55;12.40;;;16.00;79.60;;;;;;9174203;19;20019;-67
2024/03/18 13:24:00;;;;;;;27.92;11.88;;;16.00;79.50;;;;;;9174230;19;20754;-65
2024/03/18 13:27:05;;;;;;;24.50;12.85;;;16.00;79.40;;;;;;9175082;19;20152;-67
2024/03/18 13:30:16;;;;;;;26.00;11.48;;;16.00;79.30;;;;;;9174823;19;20011;-66
2024/03/18 13:33:23;;;;;;;22.80;10.80;;;16.10;79.40;;;;;;9175594;19;20018;-68
2024/03/18 13:36:30;;;;;;;21.70;9.70;;;16.10;79.30;;;;;;9174571;19;20014;-65
2024/03/18 13:39:35;;;;;;;22.02;9.48;;;16.10;79.30;;;;;;9173659;19;20025;-68
2024/03/18 13:42:41;;;;;;;22.52;9.32;;;16.10;79.20;;;;;;9174856;19;20018;-66
2024/03/18 13:45:52;;;;;;;25.20;9.52;;;16.10;79.10;;;;;;9171220;19;20014;-65
2024/03/18 13:49:04;;;;;;;20.63;9.27;;;16.20;79.10;;;;;;9173919;19;20015;-67
2024/03/18 13:52:09;;;;;;;18.15;8.38;;;16.20;79.10;;;;;;9168966;19;20049;-67
2024/03/18 13:55:15;;;;;;;18.20;8.85;;;16.10;78.90;;;;;;9171720;19;20018;-65
2024/03/18 13:58:20;;;;;;;18.23;8.02;;;16.20;78.80;;;;;;9173000;19;20010;-67
2024/03/18 14:01:26;;;;;;;21.58;9.00;;;16.20;78.80;;;;;;9172447;19;20018;-67
2024/03/18 14:04:34;;;;;;;21.27;9.45;;;16.20;78.70;;;;;;9173126;19;20014;-67
2024/03/18 14:07:40;;;;;;;17.52;8.98;;;16.30;78.70;;;;;;9173242;19;20036;-67
2024/03/18 14:10:45;;;;;;;18.75;9.07;;;16.20;78.60;;;;;;9173747;19;20025;-67
2024/03/18 14:13:52;;;;;;;22.35;10.13;;;16.30;78.60;;;;;;9173237;19;20018;-66
2024/03/18 14:16:56;;;;;;;21.08;9.23;;;16.30;78.50;;;;;;9172365;19;20026;-67
2024/03/18 14:20:08;;;;;;;17.45;7.60;;;16.30;78.50;;;;;;9172798;19;20033;-67
2024/03/18 14:23:13;;;;;;;15.48;8.18;;;16.30;78.90;;;;;;9172839;19;20037;-66
2024/03/18 14:26:19;;;;;;;22.05;8.95;;;16.30;78.40;;;;;;9171022;19;20019;-68
2024/03/18 14:29:24;;;;;;;17.83;8.43;;;16.20;78.20;;;;;;9168446;19;20022;-67
2024/03/18 14:32:31;;;;;;;18.02;8.30;;;16.20;78.20;;;;;;9168870;19;20010;-66
2024/03/18 14:35:38;;;;;;;18.90;8.00;;;16.20;78.10;;;;;;9172271;19;20345;-66
2024/03/18 14:38:44;;;;;;;19.25;8.70;;;16.20;78.00;;;;;;9167574;19;20010;-67
2024/03/18 14:41:49;;;;;;;20.65;7.10;;;16.20;78.00;;;;;;9165933;19;20019;-66
2024/03/18 14:44:55;;;;;;;16.13;6.28;;;16.20;77.90;;;;;;9170072;19;20026;-67
2024/03/18 14:48:01;;;;;;;20.27;7.05;;;16.20;77.70;;;;;;9164855;19;20029;-68
2024/03/18 14:51:13;;;;;;;20.85;6.97;;;16.10;77.50;;;;;;9165060;19;20018;-66
2024/03/18 14:54:17;;;;;;;14.55;5.55;;;16.10;77.40;;;;;;9170264;19;20018;-69
2024/03/18 14:57:23;;;;;;;21.65;6.75;;;16.10;77.40;;;;;;9168333;19;20018;-67
2024/03/18 15:00:28;;;;;;;13.95;5.28;;;16.00;77.20;;;;;;9166937;19;20027;-68
2024/03/18 15:03:34;;;;;;;25.13;5.60;;;16.00;77.20;;;;;;9164284;19;20014;-67
2024/03/18 15:06:43;;;;;;;19.63;5.68;;;16.00;77.20;;;;;;9165025;19;20029;-66
2024/03/18 15:09:49;;;;;;;18.45;5.72;;;15.90;77.00;;;;;;9167696;19;20014;-67
2024/03/18 15:12:54;;;;;;;28.00;6.25;;;15.90;77.00;;;;;;9166997;19;20022;-67
2024/03/18 15:16:00;;;;;;;17.95;6.28;;;15.90;76.90;;;;;;9170115;19;20021;-66
2024/03/18 15:19:05;;;;;;;16.90;5.63;;;15.90;76.90;;;;;;9171782;19;20014;-67
2024/03/18 15:22:14;;;;;;;18.00;5.13;;;15.90;77.50;;;;;;9168834;19;20025;-66
2024/03/18 15:28:37;;;;;;;19.33;4.95;;;15.80;76.70;;;;;;9175546;19;20010;-65
2024/03/18 15:31:43;;;;;;;16.20;5.47;;;15.80;76.70;;;;;;9180956;19;20352;-66
2024/03/18 15:34:49;;;;;;;23.80;5.32;;;15.80;76.80;;;;;;9180332;19;20349;-66
2024/03/18 15:37:56;;;;;;;16.35;4.57;;;15.80;76.70;;;;;;9177991;19;20010;-67
2024/03/18 15:41:03;;;;;;;21.35;4.80;;;15.80;76.60;;;;;;9177042;19;20025;-67
2024/03/18 15:44:08;;;;;;;16.90;5.15;;;15.80;76.60;;;;;;9180238;19;20031;-67
2024/03/18 15:47:15;;;;;;;13.15;4.13;;;15.80;76.50;;;;;;9179029;19;20038;-66
2024/03/18 15:50:19;;;;;;;18.63;5.07;;;15.80;76.50;;;;;;9175388;19;20010;-67
2024/03/18 15:53:29;;;;;;;13.07;4.07;;;15.80;76.40;;;;;;9178592;19;20488;-66
2024/03/18 15:56:33;;;;;;;12.45;3.78;;;15.70;76.20;;;;;;9176947;19;20019;-66
2024/03/18 15:59:39;;;;;;;15.38;3.90;;;15.80;76.30;;;;;;9176053;19;20014;-67
2024/03/18 16:02:44;;;;;;;15.88;4.78;;;15.80;76.20;;;;;;9176597;19;20396;-66